Time;durP1;ratioP1;P1;durP2;ratioP2;P2;SDS_P1;SDS_P2;PMS_P1;PMS_P2;Temp;Humidity;BMP_temperature;BMP_pressure;BME280_temperature;BME280_humidity;BME280_pressure;Samples;Min_cycle;Max_cycle;Signal;HPM_P1;HPM_P2
2022/03/25 00:01:12;;;;;;;17.58;12.90;;;;;;;;;;5020521;28;20494;-62
2022/03/25 00:03:38;;;;;;;24.08;13.30;;;;;;;;;;5018498;28;20437;-62
2022/03/25 00:06:04;;;;;;;20.77;12.88;;;;;;;;;;5023707;28;20034;-62
2022/03/25 00:08:31;;;;;;;18.20;12.20;;;;;;;;;;5022577;28;20659;-62
2022/03/25 00:10:57;;;;;;;15.10;11.18;;;;;;;;;;5017919;28;20029;-63
2022/03/25 00:13:23;;;;;;;14.38;11.77;;;;;;;;;;5019600;28;20108;-62
2022/03/25 00:15:49;;;;;;;18.58;12.38;;;;;;;;;;5019517;28;20069;-62
2022/03/25 00:18:14;;;;;;;18.27;12.05;;;;;;;;;;5017247;28;20411;-63
2022/03/25 00:20:40;;;;;;;18.33;12.05;;;;;;;;;;5020944;28;20467;-62
2022/03/25 00:23:06;;;;;;;15.80;11.63;;;;;;;;;;5015796;28;20053;-62
2022/03/25 00:25:31;;;;;;;17.85;11.10;;;;;;;;;;5021206;28;20045;-63
2022/03/25 00:27:57;;;;;;;15.70;11.13;;;;;;;;;;5018639;28;20045;-60
2022/03/25 00:30:23;;;;;;;18.75;11.05;;;;;;;;;;5018792;28;20029;-63
2022/03/25 00:32:49;;;;;;;18.40;11.60;;;;;;;;;;5021751;28;20021;-63
2022/03/25 00:35:17;;;;;;;12.88;10.82;;;;;;;;;;5014463;28;20022;-63
2022/03/25 00:37:42;;;;;;;16.42;11.02;;;;;;;;;;5017805;28;20485;-62
2022/03/25 00:40:09;;;;;;;18.27;11.15;;;;;;;;;;5020062;28;20101;-62
2022/03/25 00:42:35;;;;;;;13.98;10.57;;;;;;;;;;5015602;28;20360;-63
2022/03/25 00:45:04;;;;;;;24.02;10.75;;;;;;;;;;5031286;28;20026;-62
2022/03/25 00:47:30;;;;;;;12.75;10.10;;;;;;;;;;5018580;28;20034;-62
2022/03/25 00:49:55;;;;;;;17.00;10.07;;;;;;;;;;5018923;28;20026;-62
2022/03/25 00:52:21;;;;;;;14.73;10.05;;;;;;;;;;5021935;28;20507;-62
2022/03/25 00:54:48;;;;;;;15.57;10.45;;;;;;;;;;5021291;28;20029;-62
2022/03/25 00:57:14;;;;;;;12.80;9.80;;;;;;;;;;5016061;28;20029;-62
2022/03/25 00:59:40;;;;;;;16.77;9.80;;;;;;;;;;5014577;28;20034;-63
2022/03/25 01:02:05;;;;;;;16.85;9.77;;;;;;;;;;5019760;28;20037;-62
2022/03/25 01:04:31;;;;;;;16.13;9.75;;;;;;;;;;5016926;28;20030;-62
2022/03/25 01:06:57;;;;;;;12.18;9.65;;;;;;;;;;5016757;28;20118;-62
2022/03/25 01:09:22;;;;;;;14.63;9.32;;;;;;;;;;5021520;28;20025;-62
2022/03/25 01:11:49;;;;;;;12.20;9.45;;;;;;;;;;5012447;28;20026;-62
2022/03/25 01:14:15;;;;;;;15.05;9.10;;;;;;;;;;5020057;28;20021;-62
2022/03/25 01:16:40;;;;;;;11.60;9.63;;;;;;;;;;5016991;28;20091;-62
2022/03/25 01:19:06;;;;;;;14.65;9.23;;;;;;;;;;5023487;28;20030;-62
2022/03/25 01:21:32;;;;;;;14.40;9.10;;;;;;;;;;5017429;28;20034;-62
2022/03/25 01:23:59;;;;;;;13.25;9.10;;;;;;;;;;5018068;28;20042;-62
2022/03/25 01:26:25;;;;;;;11.77;9.20;;;;;;;;;;5015784;28;20057;-62
2022/03/25 01:28:52;;;;;;;10.50;8.30;;;;;;;;;;5024605;28;20490;-62
2022/03/25 01:31:19;;;;;;;12.57;8.95;;;;;;;;;;5023448;28;20141;-60
2022/03/25 01:33:45;;;;;;;14.93;9.07;;;;;;;;;;5013906;28;20061;-62
2022/03/25 01:36:12;;;;;;;12.32;8.75;;;;;;;;;;5017842;28;20080;-62
2022/03/25 01:38:39;;;;;;;15.48;9.15;;;;;;;;;;5012426;28;20068;-61
2022/03/25 01:41:05;;;;;;;15.38;9.68;;;;;;;;;;5019023;28;20073;-62
2022/03/25 01:43:31;;;;;;;12.35;9.05;;;;;;;;;;5011997;28;20560;-62
2022/03/25 01:45:57;;;;;;;13.43;9.13;;;;;;;;;;5013574;28;20109;-62
2022/03/25 01:48:23;;;;;;;16.20;9.50;;;;;;;;;;5022648;28;20076;-62
2022/03/25 01:50:49;;;;;;;13.93;9.50;;;;;;;;;;5019025;28;20675;-62
2022/03/25 01:53:18;;;;;;;13.70;9.57;;;;;;;;;;5014342;28;20049;-62
2022/03/25 01:55:50;;;;;;;13.90;9.43;;;;;;;;;;5012629;28;20045;-62
2022/03/25 01:58:16;;;;;;;12.48;8.98;;;;;;;;;;5013406;28;20092;-62
2022/03/25 02:00:42;;;;;;;13.43;9.15;;;;;;;;;;5012387;28;20034;-62
2022/03/25 02:03:08;;;;;;;10.93;8.50;;;;;;;;;;5010677;28;20038;-62
2022/03/25 02:05:35;;;;;;;11.48;9.20;;;;;;;;;;5019511;28;20029;-62
2022/03/25 02:08:02;;;;;;;11.50;8.68;;;;;;;;;;5013227;28;20554;-62
2022/03/25 02:10:29;;;;;;;19.33;8.20;;;;;;;;;;5015924;28;20034;-62
2022/03/25 02:12:54;;;;;;;15.35;8.65;;;;;;;;;;5011471;28;20034;-62
2022/03/25 02:15:41;;;;;;;15.70;9.07;;;;;;;;;;5021400;28;20125;-62
2022/03/25 02:18:12;;;;;;;13.45;8.57;;;;;;;;;;5011927;28;20036;-62
2022/03/25 02:20:39;;;;;;;12.15;8.20;;;;;;;;;;5020658;28;20037;-61
2022/03/25 02:23:06;;;;;;;19.60;8.02;;;;;;;;;;5017044;28;20037;-62
2022/03/25 02:25:32;;;;;;;13.80;8.10;;;;;;;;;;5014407;28;20044;-62
2022/03/25 02:27:59;;;;;;;14.35;8.30;;;;;;;;;;5022494;28;20041;-60
2022/03/25 02:30:26;;;;;;;11.07;8.27;;;;;;;;;;5019468;28;20028;-62
2022/03/25 02:33:01;;;;;;;14.88;8.77;;;;;;;;;;5018324;28;20037;-62
2022/03/25 02:35:47;;;;;;;12.73;7.90;;;;;;;;;;5020435;28;20041;-62
2022/03/25 02:38:21;;;;;;;12.43;7.45;;;;;;;;;;5019458;28;20033;-62
2022/03/25 02:40:47;;;;;;;11.82;8.32;;;;;;;;;;5018295;28;20037;-62
2022/03/25 02:43:12;;;;;;;10.15;7.93;;;;;;;;;;5015001;28;20041;-62
2022/03/25 02:45:39;;;;;;;11.25;8.20;;;;;;;;;;5019710;28;20748;-62
2022/03/25 02:48:05;;;;;;;10.25;8.00;;;;;;;;;;5018368;28;20034;-62
2022/03/25 02:50:32;;;;;;;9.40;7.40;;;;;;;;;;5018184;28;20034;-62
2022/03/25 02:52:58;;;;;;;10.60;8.00;;;;;;;;;;5010807;28;20069;-62
2022/03/25 02:55:24;;;;;;;12.02;8.13;;;;;;;;;;5014684;28;20021;-62
2022/03/25 02:57:51;;;;;;;13.05;7.70;;;;;;;;;;5020486;28;20025;-62
2022/03/25 03:00:19;;;;;;;10.48;7.28;;;;;;;;;;5012723;28;20040;-62
2022/03/25 03:02:45;;;;;;;12.20;8.48;;;;;;;;;;5012190;28;20037;-62
2022/03/25 03:05:11;;;;;;;13.90;7.85;;;;;;;;;;5018720;28;20038;-62
2022/03/25 03:07:37;;;;;;;9.55;6.88;;;;;;;;;;5016220;28;20033;-63
2022/03/25 03:10:04;;;;;;;8.82;7.80;;;;;;;;;;5015282;28;20037;-62
2022/03/25 03:12:32;;;;;;;9.80;7.20;;;;;;;;;;5013975;28;20483;-62
2022/03/25 03:14:59;;;;;;;10.02;7.72;;;;;;;;;;5012921;28;20069;-62
2022/03/25 03:17:25;;;;;;;12.60;8.30;;;;;;;;;;5017181;28;20040;-63
2022/03/25 03:19:51;;;;;;;9.82;7.65;;;;;;;;;;5015233;28;20109;-63
2022/03/25 03:22:19;;;;;;;11.68;7.43;;;;;;;;;;5018137;28;20037;-62
2022/03/25 03:24:45;;;;;;;12.65;7.85;;;;;;;;;;5011501;28;20386;-62
2022/03/25 03:27:11;;;;;;;14.20;7.35;;;;;;;;;;5012594;28;20026;-63
2022/03/25 03:29:38;;;;;;;13.38;7.25;;;;;;;;;;5014120;28;20029;-63
2022/03/25 03:32:06;;;;;;;8.65;6.57;;;;;;;;;;5012882;28;20487;-63
2022/03/25 03:34:32;;;;;;;8.70;7.30;;;;;;;;;;5015596;28;20041;-63
2022/03/25 03:36:58;;;;;;;10.98;6.90;;;;;;;;;;5019137;28;20045;-63
2022/03/25 03:39:24;;;;;;;10.52;6.55;;;;;;;;;;5019324;28;20042;-62
2022/03/25 03:41:49;;;;;;;8.18;6.80;;;;;;;;;;5015945;28;20080;-63
2022/03/25 03:44:15;;;;;;;7.50;6.53;;;;;;;;;;5019110;28;20076;-62
2022/03/25 03:46:41;;;;;;;8.98;6.43;;;;;;;;;;5019942;28;20175;-62
2022/03/25 03:49:07;;;;;;;10.07;6.93;;;;;;;;;;5020065;28;20034;-62
2022/03/25 03:51:33;;;;;;;8.48;6.65;;;;;;;;;;5025100;28;20029;-62
2022/03/25 03:54:00;;;;;;;9.55;6.75;;;;;;;;;;5013362;28;20076;-61
2022/03/25 03:56:26;;;;;;;8.63;7.10;;;;;;;;;;5022183;28;20033;-62
2022/03/25 03:58:53;;;;;;;10.30;7.45;;;;;;;;;;5023241;28;20582;-63
2022/03/25 04:01:18;;;;;;;7.60;6.53;;;;;;;;;;5025100;28;20041;-63
2022/03/25 04:03:44;;;;;;;12.95;6.32;;;;;;;;;;5022176;28;20082;-63
2022/03/25 04:06:10;;;;;;;13.88;7.20;;;;;;;;;;5022491;28;20042;-63
2022/03/25 04:08:36;;;;;;;9.38;6.57;;;;;;;;;;5016327;28;20021;-62
2022/03/25 04:11:03;;;;;;;13.68;6.07;;;;;;;;;;5017331;28;20064;-63
2022/03/25 04:13:29;;;;;;;6.60;5.80;;;;;;;;;;5017466;28;20021;-63
2022/03/25 04:15:56;;;;;;;8.48;6.57;;;;;;;;;;5017751;28;20057;-62
2022/03/25 04:18:23;;;;;;;10.55;6.97;;;;;;;;;;5016118;28;20057;-63
2022/03/25 04:20:52;;;;;;;7.72;6.43;;;;;;;;;;5014372;28;20513;-62
2022/03/25 04:23:17;;;;;;;10.45;6.28;;;;;;;;;;5026965;28;20033;-63
2022/03/25 04:25:43;;;;;;;8.60;6.35;;;;;;;;;;5020009;28;20033;-63
2022/03/25 04:28:09;;;;;;;10.77;7.15;;;;;;;;;;5017318;28;20463;-62
2022/03/25 04:30:37;;;;;;;11.95;6.63;;;;;;;;;;5023547;28;20021;-63
2022/03/25 04:33:04;;;;;;;7.57;6.10;;;;;;;;;;5012920;28;20549;-63
2022/03/25 04:35:30;;;;;;;9.02;6.22;;;;;;;;;;5023259;28;20033;-62
2022/03/25 04:37:57;;;;;;;7.55;6.30;;;;;;;;;;5017931;28;20030;-62
2022/03/25 04:40:25;;;;;;;10.82;6.35;;;;;;;;;;5022166;28;20025;-62
2022/03/25 04:42:52;;;;;;;11.32;6.10;;;;;;;;;;5017142;28;20033;-62
2022/03/25 04:45:19;;;;;;;7.55;6.22;;;;;;;;;;5020560;28;20425;-59
2022/03/25 04:47:45;;;;;;;10.15;6.25;;;;;;;;;;5019864;28;20033;-62
2022/03/25 04:50:11;;;;;;;12.38;6.00;;;;;;;;;;5013656;28;20033;-62
2022/03/25 04:52:38;;;;;;;8.93;6.43;;;;;;;;;;5017478;28;20407;-63
2022/03/25 04:55:04;;;;;;;7.70;5.95;;;;;;;;;;5015986;28;20541;-62
2022/03/25 04:57:30;;;;;;;6.40;5.53;;;;;;;;;;5019797;28;20037;-62
2022/03/25 04:59:56;;;;;;;8.52;5.75;;;;;;;;;;5021356;28;20014;-63
2022/03/25 05:02:22;;;;;;;12.82;6.28;;;;;;;;;;5025723;28;20029;-62
2022/03/25 05:04:48;;;;;;;8.75;6.32;;;;;;;;;;5020365;28;20121;-63
2022/03/25 05:07:15;;;;;;;10.25;5.85;;;;;;;;;;5022439;28;20121;-63
2022/03/25 05:09:41;;;;;;;9.77;6.45;;;;;;;;;;5024275;28;20749;-62
2022/03/25 05:12:08;;;;;;;7.05;5.70;;;;;;;;;;5012606;28;20125;-62
2022/03/25 05:14:34;;;;;;;7.68;6.20;;;;;;;;;;5013365;28;20042;-62
2022/03/25 05:17:00;;;;;;;9.10;5.80;;;;;;;;;;5012891;28;20341;-62
2022/03/25 05:19:26;;;;;;;6.93;5.65;;;;;;;;;;5017039;28;20437;-62
2022/03/25 05:21:52;;;;;;;10.30;6.00;;;;;;;;;;5019656;28;20033;-62
2022/03/25 05:24:18;;;;;;;10.88;5.63;;;;;;;;;;5021008;28;20053;-63
2022/03/25 05:26:44;;;;;;;11.10;6.07;;;;;;;;;;5017280;28;20033;-62
2022/03/25 05:29:10;;;;;;;10.23;5.80;;;;;;;;;;5026775;28;20043;-62
2022/03/25 05:31:37;;;;;;;8.48;5.60;;;;;;;;;;5017783;28;20061;-62
2022/03/25 05:34:06;;;;;;;8.10;6.18;;;;;;;;;;5015189;28;20057;-62
2022/03/25 05:36:32;;;;;;;12.50;6.28;;;;;;;;;;5021069;28;20079;-62
2022/03/25 05:38:59;;;;;;;8.70;5.75;;;;;;;;;;5024821;28;20044;-62
2022/03/25 05:41:25;;;;;;;6.97;5.60;;;;;;;;;;5023316;28;20032;-63
2022/03/25 05:43:52;;;;;;;12.25;5.75;;;;;;;;;;5013662;28;20025;-62
2022/03/25 05:46:17;;;;;;;9.93;7.25;;;;;;;;;;5013405;28;20032;-62
2022/03/25 05:48:44;;;;;;;11.15;6.32;;;;;;;;;;5016406;28;20030;-62
2022/03/25 05:51:10;;;;;;;9.38;5.90;;;;;;;;;;5011930;28;20084;-62
2022/03/25 05:53:37;;;;;;;10.85;6.50;;;;;;;;;;5018273;28;20044;-62
2022/03/25 05:56:03;;;;;;;9.82;6.68;;;;;;;;;;5021710;28;20079;-62
2022/03/25 05:58:34;;;;;;;12.05;6.07;;;;;;;;;;5016039;28;20049;-62
2022/03/25 06:01:01;;;;;;;11.20;6.50;;;;;;;;;;5016177;28;20034;-62
2022/03/25 06:03:27;;;;;;;12.15;5.75;;;;;;;;;;5014243;28;20052;-62
2022/03/25 06:05:53;;;;;;;6.30;5.22;;;;;;;;;;5014384;28;20037;-62
2022/03/25 06:08:19;;;;;;;11.13;6.38;;;;;;;;;;5025602;28;20648;-62
2022/03/25 06:10:46;;;;;;;8.45;6.10;;;;;;;;;;5017390;28;20025;-62
2022/03/25 06:13:12;;;;;;;9.10;6.28;;;;;;;;;;5019451;28;20060;-62
2022/03/25 06:15:37;;;;;;;10.00;5.85;;;;;;;;;;5022302;28;20966;-63
2022/03/25 06:18:03;;;;;;;8.00;5.80;;;;;;;;;;5015200;28;20061;-62
2022/03/25 06:20:29;;;;;;;7.57;6.30;;;;;;;;;;5019743;28;20033;-62
2022/03/25 06:22:56;;;;;;;9.32;5.57;;;;;;;;;;5019740;28;20507;-62
2022/03/25 06:25:22;;;;;;;6.00;5.40;;;;;;;;;;5017698;28;20083;-62
2022/03/25 06:27:51;;;;;;;9.52;5.90;;;;;;;;;;5013777;28;20033;-62
2022/03/25 06:30:19;;;;;;;7.28;5.82;;;;;;;;;;5011913;28;20037;-62
2022/03/25 06:32:44;;;;;;;6.70;5.65;;;;;;;;;;5019196;28;20025;-62
2022/03/25 06:35:10;;;;;;;13.70;5.85;;;;;;;;;;5014970;28;20038;-62
2022/03/25 06:37:36;;;;;;;7.35;5.60;;;;;;;;;;5019730;28;20120;-62
2022/03/25 06:40:05;;;;;;;8.95;6.10;;;;;;;;;;5022338;28;20038;-63
2022/03/25 06:42:31;;;;;;;6.28;5.28;;;;;;;;;;5012346;28;20058;-62
2022/03/25 06:44:57;;;;;;;9.40;5.85;;;;;;;;;;5013155;28;20092;-63
2022/03/25 06:47:23;;;;;;;6.40;5.80;;;;;;;;;;5022462;28;20030;-62
2022/03/25 06:49:49;;;;;;;10.48;6.10;;;;;;;;;;5015336;28;20694;-62
2022/03/25 06:52:15;;;;;;;10.75;5.60;;;;;;;;;;5018363;28;20107;-63
2022/03/25 06:54:41;;;;;;;12.45;6.60;;;;;;;;;;5015642;28;20040;-62
2022/03/25 06:57:07;;;;;;;9.30;6.40;;;;;;;;;;5018869;28;20029;-62
2022/03/25 06:59:33;;;;;;;10.57;6.40;;;;;;;;;;5018445;28;20115;-63
2022/03/25 07:01:59;;;;;;;7.50;5.25;;;;;;;;;;5022800;28;20075;-62
2022/03/25 07:04:25;;;;;;;11.25;5.53;;;;;;;;;;5020641;28;20073;-62
2022/03/25 07:06:54;;;;;;;7.53;5.80;;;;;;;;;;5016146;28;20118;-62
2022/03/25 07:09:20;;;;;;;6.85;6.15;;;;;;;;;;5017596;28;20029;-62
2022/03/25 07:11:47;;;;;;;7.25;5.55;;;;;;;;;;5016430;28;20037;-63
2022/03/25 07:14:13;;;;;;;8.63;5.85;;;;;;;;;;5018787;28;20394;-63
2022/03/25 07:16:42;;;;;;;8.35;5.50;;;;;;;;;;5017592;28;20040;-62
2022/03/25 07:19:09;;;;;;;6.93;5.68;;;;;;;;;;5022489;28;20134;-63
2022/03/25 07:21:36;;;;;;;7.65;5.28;;;;;;;;;;5017778;28;20390;-63
2022/03/25 07:24:01;;;;;;;9.40;5.47;;;;;;;;;;5024158;28;20758;-62
2022/03/25 07:26:27;;;;;;;9.25;5.55;;;;;;;;;;5020266;28;20036;-62
2022/03/25 07:28:53;;;;;;;8.68;5.88;;;;;;;;;;5018851;28;20092;-62
2022/03/25 07:31:19;;;;;;;6.40;4.90;;;;;;;;;;5024436;28;20091;-62
2022/03/25 07:33:44;;;;;;;7.60;5.28;;;;;;;;;;5019911;28;20044;-63
2022/03/25 07:36:10;;;;;;;7.13;5.55;;;;;;;;;;5020235;28;20080;-62
2022/03/25 07:38:36;;;;;;;7.70;4.70;;;;;;;;;;5022835;28;20030;-62
2022/03/25 07:41:03;;;;;;;10.80;5.40;;;;;;;;;;5022833;28;20438;-62
2022/03/25 07:43:30;;;;;;;15.18;5.93;;;;;;;;;;5021790;28;20037;-62
2022/03/25 07:45:56;;;;;;;26.25;6.68;;;;;;;;;;5017488;28;20053;-62
2022/03/25 07:48:22;;;;;;;17.73;7.10;;;;;;;;;;5016356;28;20073;-62
2022/03/25 07:50:48;;;;;;;21.23;6.80;;;;;;;;;;5024148;28;20493;-63
2022/03/25 07:53:14;;;;;;;20.38;6.80;;;;;;;;;;5019645;28;20030;-62
2022/03/25 07:55:40;;;;;;;9.38;6.65;;;;;;;;;;5024162;28;20029;-62
2022/03/25 07:58:06;;;;;;;19.23;7.28;;;;;;;;;;5021037;28;20115;-62
2022/03/25 08:00:32;;;;;;;15.40;7.13;;;;;;;;;;5019299;28;20367;-62
2022/03/25 08:02:58;;;;;;;9.02;5.50;;;;;;;;;;5020328;28;20473;-62
2022/03/25 08:05:23;;;;;;;5.65;4.80;;;;;;;;;;5019255;28;20113;-62
2022/03/25 08:07:54;;;;;;;9.52;5.45;;;;;;;;;;5018633;28;20032;-62
2022/03/25 08:10:25;;;;;;;5.68;5.00;;;;;;;;;;5019386;28;20033;-62
2022/03/25 08:12:51;;;;;;;8.52;4.72;;;;;;;;;;5015895;28;20033;-62
2022/03/25 08:15:18;;;;;;;9.23;5.10;;;;;;;;;;5015988;28;20030;-62
2022/03/25 08:17:45;;;;;;;9.35;4.90;;;;;;;;;;5016595;28;20041;-62
2022/03/25 08:20:11;;;;;;;9.95;6.50;;;;;;;;;;5020853;28;20041;-62
2022/03/25 08:22:37;;;;;;;6.03;5.03;;;;;;;;;;5018349;28;20108;-62
2022/03/25 08:27:50;;;;;;;11.82;5.43;;;;;;;;;;5018617;28;20029;-62
2022/03/25 08:30:16;;;;;;;5.38;4.82;;;;;;;;;;5018024;28;20029;-62
2022/03/25 08:32:42;;;;;;;6.78;5.35;;;;;;;;;;5017015;28;20029;-62
2022/03/25 08:35:08;;;;;;;6.88;5.07;;;;;;;;;;5017421;28;20034;-62
2022/03/25 08:37:34;;;;;;;8.32;6.13;;;;;;;;;;5021726;28;22893;-62
2022/03/25 08:40:00;;;;;;;8.05;5.40;;;;;;;;;;5020806;28;20034;-61
2022/03/25 08:42:25;;;;;;;7.78;5.30;;;;;;;;;;5019437;28;20028;-62
2022/03/25 08:44:51;;;;;;;7.57;5.25;;;;;;;;;;5014469;28;20071;-62
2022/03/25 08:47:17;;;;;;;8.85;5.60;;;;;;;;;;5016851;28;20026;-62
2022/03/25 08:49:43;;;;;;;5.85;5.03;;;;;;;;;;5021963;28;20363;-62
2022/03/25 08:52:09;;;;;;;7.82;5.47;;;;;;;;;;5016874;28;20050;-62
2022/03/25 08:54:35;;;;;;;9.55;5.32;;;;;;;;;;5019907;28;20621;-62
2022/03/25 08:57:02;;;;;;;13.10;6.20;;;;;;;;;;5015689;28;20100;-62
2022/03/25 08:59:28;;;;;;;18.92;8.68;;;;;;;;;;5018284;28;20060;-62
2022/03/25 09:01:56;;;;;;;15.68;8.65;;;;;;;;;;5021869;28;20041;-62
2022/03/25 09:04:21;;;;;;;25.77;11.50;;;;;;;;;;5013578;28;20471;-63
2022/03/25 09:06:47;;;;;;;20.25;11.00;;;;;;;;;;5014723;28;20026;-62
2022/03/25 09:09:13;;;;;;;18.83;12.43;;;;;;;;;;5021028;28;20033;-62
2022/03/25 09:11:40;;;;;;;17.85;11.02;;;;;;;;;;5015636;28;20030;-63
2022/03/25 09:14:06;;;;;;;18.17;9.23;;;;;;;;;;5015331;28;20037;-62
2022/03/25 09:16:31;;;;;;;27.88;9.50;;;;;;;;;;5016226;28;20084;-62
2022/03/25 09:18:57;;;;;;;14.85;9.48;;;;;;;;;;5018185;28;20459;-63
2022/03/25 09:21:23;;;;;;;17.05;8.95;;;;;;;;;;5018079;28;20033;-63
2022/03/25 09:23:49;;;;;;;26.48;10.20;;;;;;;;;;5012114;28;20033;-62
2022/03/25 09:26:16;;;;;;;21.70;10.80;;;;;;;;;;5020133;28;20029;-63
2022/03/25 09:28:42;;;;;;;20.08;9.82;;;;;;;;;;5019720;28;20044;-62
2022/03/25 09:31:08;;;;;;;12.10;8.55;;;;;;;;;;5012237;28;20030;-63
2022/03/25 09:33:33;;;;;;;15.38;10.02;;;;;;;;;;5016734;28;20025;-62
2022/03/25 09:35:59;;;;;;;17.23;9.02;;;;;;;;;;5015036;28;20126;-62
2022/03/25 09:38:25;;;;;;;15.68;8.88;;;;;;;;;;5017961;28;21036;-62
2022/03/25 09:40:52;;;;;;;24.73;10.88;;;;;;;;;;5014997;28;20029;-62
2022/03/25 09:43:19;;;;;;;21.65;10.63;;;;;;;;;;5013482;28;20037;-62
2022/03/25 09:45:44;;;;;;;22.73;10.95;;;;;;;;;;5014947;28;20036;-62
2022/03/25 09:48:10;;;;;;;19.13;12.02;;;;;;;;;;5023623;28;20041;-62
2022/03/25 09:50:39;;;;;;;24.92;11.95;;;;;;;;;;5019387;28;20383;-63
2022/03/25 09:53:07;;;;;;;17.70;10.88;;;;;;;;;;5023983;28;20052;-63
2022/03/25 09:55:43;;;;;;;11.55;8.85;;;;;;;;;;5015637;28;20076;-62
2022/03/25 09:58:11;;;;;;;15.02;10.13;;;;;;;;;;5019280;28;20037;-63
2022/03/25 10:00:37;;;;;;;10.07;6.93;;;;;;;;;;5012888;28;20080;-63
2022/03/25 10:03:03;;;;;;;16.55;10.02;;;;;;;;;;5010456;28;20037;-63
2022/03/25 10:05:29;;;;;;;16.48;7.97;;;;;;;;;;5015084;28;20536;-62
2022/03/25 10:07:55;;;;;;;9.27;7.35;;;;;;;;;;5018640;28;20021;-63
2022/03/25 10:10:24;;;;;;;8.98;4.90;;;;;;;;;;5017512;28;20041;-63
2022/03/25 10:12:58;;;;;;;9.23;7.80;;;;;;;;;;5017931;28;20025;-63
2022/03/25 10:15:26;;;;;;;15.80;8.07;;;;;;;;;;5023467;28;20036;-63
2022/03/25 10:17:52;;;;;;;10.73;6.65;;;;;;;;;;5019215;28;20048;-63
2022/03/25 10:20:24;;;;;;;11.60;7.53;;;;;;;;;;5025162;28;20060;-63
2022/03/25 10:23:25;;;;;;;19.13;8.07;;;;;;;;;;5017678;28;20029;-62
2022/03/25 10:25:51;;;;;;;17.55;12.18;;;;;;;;;;5036773;28;20080;-63
2022/03/25 10:28:30;;;;;;;17.50;11.02;;;;;;;;;;5025029;28;20692;-63
2022/03/25 10:30:59;;;;;;;11.85;7.38;;;;;;;;;;5025805;28;20393;-64
2022/03/25 10:33:34;;;;;;;15.85;11.15;;;;;;;;;;5025556;28;20049;-62
2022/03/25 10:36:01;;;;;;;10.95;8.18;;;;;;;;;;5024590;28;20034;-63
2022/03/25 10:38:41;;;;;;;15.32;8.00;;;;;;;;;;5025024;28;20064;-63
2022/03/25 10:41:08;;;;;;;11.93;6.82;;;;;;;;;;5033110;28;20041;-63
2022/03/25 10:43:34;;;;;;;10.48;8.57;;;;;;;;;;5026981;28;20021;-63
2022/03/25 10:46:00;;;;;;;12.10;8.45;;;;;;;;;;5028864;28;20025;-62
2022/03/25 10:48:25;;;;;;;15.63;8.95;;;;;;;;;;5028245;28;20192;-63
2022/03/25 10:51:00;;;;;;;11.10;7.75;;;;;;;;;;5034150;28;20026;-63
2022/03/25 10:53:27;;;;;;;9.48;6.30;;;;;;;;;;5032258;28;20526;-62
2022/03/25 10:56:10;;;;;;;8.32;6.72;;;;;;;;;;5029546;28;20108;-63
2022/03/25 10:58:37;;;;;;;7.28;6.25;;;;;;;;;;5029613;28;20041;-63
2022/03/25 11:01:06;;;;;;;12.88;8.98;;;;;;;;;;5019895;28;20037;-63
2022/03/25 11:03:33;;;;;;;16.42;9.65;;;;;;;;;;5026246;28;20029;-62
2022/03/25 11:05:59;;;;;;;14.27;8.48;;;;;;;;;;5023421;28;20060;-62
2022/03/25 11:08:24;;;;;;;16.88;7.85;;;;;;;;;;5020791;28;20071;-62
2022/03/25 11:10:53;;;;;;;19.80;9.02;;;;;;;;;;5017747;28;22224;-62
2022/03/25 11:13:22;;;;;;;14.07;8.40;;;;;;;;;;5022999;28;20076;-62
2022/03/25 11:15:49;;;;;;;15.48;8.02;;;;;;;;;;5018747;28;20025;-62
2022/03/25 11:18:19;;;;;;;18.00;7.47;;;;;;;;;;5020131;28;20478;-62
2022/03/25 11:20:45;;;;;;;15.13;7.32;;;;;;;;;;5015799;28;20025;-62
2022/03/25 11:23:23;;;;;;;9.85;6.40;;;;;;;;;;5018840;28;20055;-62
2022/03/25 11:25:51;;;;;;;8.38;6.28;;;;;;;;;;5016035;28;20120;-62
2022/03/25 11:28:25;;;;;;;14.38;6.93;;;;;;;;;;5019212;28;20040;-62
2022/03/25 11:31:00;;;;;;;11.10;6.13;;;;;;;;;;5018713;28;20064;-62
2022/03/25 11:33:26;;;;;;;10.35;6.13;;;;;;;;;;5015446;28;20052;-61
2022/03/25 11:36:15;;;;;;;7.05;5.47;;;;;;;;;;5016180;28;20034;-62
2022/03/25 11:38:44;;;;;;;7.45;5.57;;;;;;;;;;5021209;28;20029;-62
2022/03/25 11:41:26;;;;;;;9.73;5.85;;;;;;;;;;5020001;28;20092;-62
2022/03/25 11:44:16;;;;;;;14.95;5.85;;;;;;;;;;5017408;28;20423;-62
2022/03/25 11:47:00;;;;;;;8.85;5.15;;;;;;;;;;5013042;28;20038;-62
2022/03/25 11:49:27;;;;;;;8.10;5.43;;;;;;;;;;5016448;28;20418;-62
2022/03/25 11:51:53;;;;;;;9.93;5.30;;;;;;;;;;5016727;28;20056;-62
2022/03/25 11:54:40;;;;;;;8.55;6.32;;;;;;;;;;5024855;28;20033;-62
2022/03/25 11:57:23;;;;;;;11.27;5.97;;;;;;;;;;5022995;28;20135;-62
2022/03/25 11:59:51;;;;;;;11.73;6.10;;;;;;;;;;5013272;28;20117;-62
2022/03/25 12:02:35;;;;;;;6.43;5.70;;;;;;;;;;5025526;28;20386;-62
2022/03/25 12:05:03;;;;;;;10.57;6.55;;;;;;;;;;5016806;28;20034;-62
2022/03/25 12:07:29;;;;;;;10.05;6.35;;;;;;;;;;5022081;28;20028;-62
2022/03/25 12:09:55;;;;;;;8.73;6.22;;;;;;;;;;5015918;28;20029;-62
2022/03/25 12:12:54;;;;;;;8.15;5.90;;;;;;;;;;5016187;28;20478;-62
2022/03/25 12:15:20;;;;;;;9.70;5.90;;;;;;;;;;5020760;28;20147;-62
2022/03/25 12:17:46;;;;;;;8.07;5.70;;;;;;;;;;5016447;28;20038;-62
2022/03/25 12:20:12;;;;;;;9.48;5.97;;;;;;;;;;5016756;28;20026;-61
2022/03/25 12:22:39;;;;;;;8.20;5.45;;;;;;;;;;5013126;28;20022;-63
2022/03/25 12:25:13;;;;;;;12.10;5.75;;;;;;;;;;5017571;28;20026;-62
2022/03/25 12:27:40;;;;;;;10.32;7.63;;;;;;;;;;5017672;28;20026;-62
2022/03/25 12:30:06;;;;;;;12.73;7.03;;;;;;;;;;5017807;28;20018;-62
2022/03/25 12:32:35;;;;;;;11.07;7.85;;;;;;;;;;5022225;28;20034;-62
2022/03/25 12:35:13;;;;;;;14.27;7.40;;;;;;;;;;5019915;28;20029;-62
2022/03/25 12:37:58;;;;;;;10.10;7.72;;;;;;;;;;5020152;28;20223;-62
2022/03/25 12:40:34;;;;;;;12.88;8.20;;;;;;;;;;5021729;28;20509;-63
2022/03/25 12:43:02;;;;;;;10.20;7.20;;;;;;;;;;5022810;28;20435;-62
2022/03/25 12:45:48;;;;;;;8.55;6.40;;;;;;;;;;5017120;28;20155;-62
2022/03/25 12:48:25;;;;;;;7.97;6.60;;;;;;;;;;5012088;28;20060;-62
2022/03/25 12:50:54;;;;;;;8.48;6.32;;;;;;;;;;5013962;28;20034;-62
2022/03/25 12:53:25;;;;;;;11.57;6.38;;;;;;;;;;5016313;28;20054;-61
2022/03/25 12:55:51;;;;;;;13.27;6.88;;;;;;;;;;5012716;28;20022;-62
2022/03/25 12:58:20;;;;;;;11.77;6.30;;;;;;;;;;5019644;28;20056;-62
2022/03/25 13:00:49;;;;;;;14.35;5.97;;;;;;;;;;5017973;28;20068;-63
2022/03/25 13:03:17;;;;;;;7.82;6.32;;;;;;;;;;5018752;28;20036;-62
2022/03/25 13:05:44;;;;;;;7.72;6.40;;;;;;;;;;5018664;28;20025;-62
2022/03/25 13:08:11;;;;;;;11.82;7.18;;;;;;;;;;5019457;28;20038;-62
2022/03/25 13:10:39;;;;;;;11.23;6.53;;;;;;;;;;5019931;28;20044;-62
2022/03/25 13:13:08;;;;;;;14.60;7.18;;;;;;;;;;5015452;28;20033;-62
2022/03/25 13:15:41;;;;;;;8.98;5.95;;;;;;;;;;5013140;28;20048;-62
2022/03/25 13:18:10;;;;;;;14.43;7.00;;;;;;;;;;5013241;28;20040;-62
2022/03/25 13:20:40;;;;;;;10.02;6.72;;;;;;;;;;5023672;28;20037;-62
2022/03/25 13:23:18;;;;;;;9.23;6.65;;;;;;;;;;5025416;28;20049;-63
2022/03/25 13:25:55;;;;;;;11.23;7.28;;;;;;;;;;5017809;28;20064;-63
2022/03/25 13:28:35;;;;;;;9.68;6.88;;;;;;;;;;5017321;28;20044;-62
2022/03/25 13:31:04;;;;;;;14.38;7.43;;;;;;;;;;5019181;28;20037;-62
2022/03/25 13:33:45;;;;;;;13.57;7.28;;;;;;;;;;5019701;28;20033;-62
2022/03/25 13:36:12;;;;;;;13.77;7.60;;;;;;;;;;5017974;28;20069;-62
2022/03/25 13:38:37;;;;;;;21.23;8.02;;;;;;;;;;5016263;28;20457;-63
2022/03/25 13:41:24;;;;;;;15.13;8.57;;;;;;;;;;5024340;28;20108;-63
2022/03/25 13:44:06;;;;;;;20.55;7.97;;;;;;;;;;5020650;28;20030;-63
2022/03/25 13:46:32;;;;;;;10.18;7.15;;;;;;;;;;5012893;28;20025;-63
2022/03/25 13:49:09;;;;;;;9.50;7.65;;;;;;;;;;5021219;28;20045;-63
2022/03/25 13:51:37;;;;;;;14.23;6.68;;;;;;;;;;5011826;28;20021;-63
2022/03/25 13:54:09;;;;;;;8.45;6.68;;;;;;;;;;5018271;28;20127;-63
2022/03/25 13:56:39;;;;;;;9.77;6.57;;;;;;;;;;5013781;28;20108;-63
2022/03/25 13:59:10;;;;;;;11.40;7.32;;;;;;;;;;5016444;28;20277;-62
2022/03/25 14:01:37;;;;;;;17.48;6.90;;;;;;;;;;5013539;28;20030;-63
2022/03/25 14:04:13;;;;;;;13.55;8.35;;;;;;;;;;5016579;28;20056;-62
2022/03/25 14:07:00;;;;;;;12.68;7.97;;;;;;;;;;5018359;28;20040;-59
2022/03/25 14:09:35;;;;;;;14.20;7.75;;;;;;;;;;5021837;28;20144;-62
2022/03/25 14:12:15;;;;;;;12.65;6.88;;;;;;;;;;5018799;28;20036;-63
2022/03/25 14:15:01;;;;;;;16.17;6.70;;;;;;;;;;5016954;28;20033;-63
2022/03/25 14:17:29;;;;;;;13.25;6.78;;;;;;;;;;5018611;28;20095;-63
2022/03/25 14:20:17;;;;;;;17.50;7.22;;;;;;;;;;5016574;28;20083;-63
2022/03/25 14:22:48;;;;;;;14.25;7.20;;;;;;;;;;5018748;28;20116;-63
2022/03/25 14:25:16;;;;;;;7.63;6.75;;;;;;;;;;5016800;28;20033;-62
2022/03/25 14:27:47;;;;;;;10.18;6.70;;;;;;;;;;5017143;28;20065;-63
2022/03/25 14:30:13;;;;;;;12.57;6.43;;;;;;;;;;5014560;28;20130;-63
2022/03/25 14:32:40;;;;;;;8.57;6.38;;;;;;;;;;5017661;28;20057;-63
2022/03/25 14:35:07;;;;;;;9.45;6.00;;;;;;;;;;5013729;28;20124;-63
2022/03/25 14:37:33;;;;;;;17.20;6.32;;;;;;;;;;5020024;28;20021;-63
2022/03/25 14:39:58;;;;;;;8.88;6.28;;;;;;;;;;5015338;28;20030;-63
2022/03/25 14:42:24;;;;;;;12.07;6.50;;;;;;;;;;5023464;28;20529;-63